sensor_id;sensor_type;location;lat;lon;timestamp;P1;durP1;ratioP1;P2;durP2;ratioP2
4290;SDS011;2159;50.906;7.152;2023-02-26T00:01:22;5.23;;;3.10;;
4290;SDS011;2159;50.906;7.152;2023-02-26T00:03:50;4.43;;;3.30;;
4290;SDS011;2159;50.906;7.152;2023-02-26T00:06:18;5.33;;;2.77;;
4290;SDS011;2159;50.906;7.152;2023-02-26T00:08:46;5.23;;;3.00;;
4290;SDS011;2159;50.906;7.152;2023-02-26T00:11:14;3.77;;;3.27;;
4290;SDS011;2159;50.906;7.152;2023-02-26T00:13:42;5.40;;;3.23;;
4290;SDS011;2159;50.906;7.152;2023-02-26T00:16:16;5.37;;;3.50;;
4290;SDS011;2159;50.906;7.152;2023-02-26T00:18:47;3.77;;;2.90;;
4290;SDS011;2159;50.906;7.152;2023-02-26T00:21:15;4.37;;;2.83;;
4290;SDS011;2159;50.906;7.152;2023-02-26T00:23:43;5.20;;;3.20;;
4290;SDS011;2159;50.906;7.152;2023-02-26T00:26:11;4.13;;;3.10;;
4290;SDS011;2159;50.906;7.152;2023-02-26T00:28:38;4.70;;;2.97;;
4290;SDS011;2159;50.906;7.152;2023-02-26T00:31:06;4.40;;;3.10;;
4290;SDS011;2159;50.906;7.152;2023-02-26T00:33:35;5.40;;;3.23;;
4290;SDS011;2159;50.906;7.152;2023-02-26T00:36:07;6.57;;;3.67;;
4290;SDS011;2159;50.906;7.152;2023-02-26T00:38:38;6.17;;;3.30;;
4290;SDS011;2159;50.906;7.152;2023-02-26T00:41:08;9.63;;;4.10;;
4290;SDS011;2159;50.906;7.152;2023-02-26T00:43:36;8.83;;;3.80;;
4290;SDS011;2159;50.906;7.152;2023-02-26T00:46:06;7.50;;;3.90;;
4290;SDS011;2159;50.906;7.152;2023-02-26T00:48:43;6.13;;;4.10;;
4290;SDS011;2159;50.906;7.152;2023-02-26T00:51:18;6.97;;;5.13;;
4290;SDS011;2159;50.906;7.152;2023-02-26T00:53:48;8.17;;;4.40;;
4290;SDS011;2159;50.906;7.152;2023-02-26T00:56:18;5.73;;;4.40;;
4290;SDS011;2159;50.906;7.152;2023-02-26T00:58:46;8.13;;;4.20;;
4290;SDS011;2159;50.906;7.152;2023-02-26T01:01:13;7.97;;;4.33;;
4290;SDS011;2159;50.906;7.152;2023-02-26T01:03:42;6.00;;;4.43;;
4290;SDS011;2159;50.906;7.152;2023-02-26T01:06:10;7.77;;;5.03;;
4290;SDS011;2159;50.906;7.152;2023-02-26T01:08:41;9.93;;;5.47;;
4290;SDS011;2159;50.906;7.152;2023-02-26T01:11:09;11.90;;;6.50;;
4290;SDS011;2159;50.906;7.152;2023-02-26T01:13:37;12.03;;;7.50;;
4290;SDS011;2159;50.906;7.152;2023-02-26T01:16:07;13.83;;;8.07;;
4290;SDS011;2159;50.906;7.152;2023-02-26T01:18:37;14.77;;;8.80;;
4290;SDS011;2159;50.906;7.152;2023-02-26T01:21:09;17.90;;;9.20;;
4290;SDS011;2159;50.906;7.152;2023-02-26T01:23:40;18.20;;;9.40;;
4290;SDS011;2159;50.906;7.152;2023-02-26T01:26:10;11.70;;;7.67;;
4290;SDS011;2159;50.906;7.152;2023-02-26T01:28:39;11.67;;;7.03;;
4290;SDS011;2159;50.906;7.152;2023-02-26T01:31:10;12.20;;;7.63;;
4290;SDS011;2159;50.906;7.152;2023-02-26T01:33:43;10.80;;;6.97;;
4290;SDS011;2159;50.906;7.152;2023-02-26T01:36:16;8.40;;;5.73;;
4290;SDS011;2159;50.906;7.152;2023-02-26T01:38:47;7.63;;;5.00;;
4290;SDS011;2159;50.906;7.152;2023-02-26T01:41:21;9.00;;;4.53;;
4290;SDS011;2159;50.906;7.152;2023-02-26T01:43:53;7.37;;;4.00;;
4290;SDS011;2159;50.906;7.152;2023-02-26T01:46:25;11.30;;;3.73;;
4290;SDS011;2159;50.906;7.152;2023-02-26T01:48:55;4.20;;;3.57;;
4290;SDS011;2159;50.906;7.152;2023-02-26T01:54:11;6.20;;;4.10;;
4290;SDS011;2159;50.906;7.152;2023-02-26T01:56:38;10.20;;;4.70;;
4290;SDS011;2159;50.906;7.152;2023-02-26T01:59:07;7.43;;;4.40;;
4290;SDS011;2159;50.906;7.152;2023-02-26T02:01:36;6.07;;;4.00;;
4290;SDS011;2159;50.906;7.152;2023-02-26T02:04:04;10.70;;;3.97;;
4290;SDS011;2159;50.906;7.152;2023-02-26T02:06:32;3.90;;;3.43;;
4290;SDS011;2159;50.906;7.152;2023-02-26T02:08:59;6.40;;;3.20;;
4290;SDS011;2159;50.906;7.152;2023-02-26T02:11:29;6.70;;;3.00;;
4290;SDS011;2159;50.906;7.152;2023-02-26T02:14:00;5.60;;;3.00;;
4290;SDS011;2159;50.906;7.152;2023-02-26T02:16:34;4.00;;;2.73;;
4290;SDS011;2159;50.906;7.152;2023-02-26T02:19:07;4.27;;;3.10;;
4290;SDS011;2159;50.906;7.152;2023-02-26T02:21:52;3.97;;;3.00;;
4290;SDS011;2159;50.906;7.152;2023-02-26T02:24:23;5.47;;;3.07;;
4290;SDS011;2159;50.906;7.152;2023-02-26T02:27:02;3.13;;;2.73;;
4290;SDS011;2159;50.906;7.152;2023-02-26T02:32:17;7.17;;;2.80;;
4290;SDS011;2159;50.906;7.152;2023-02-26T02:34:46;3.73;;;2.87;;
4290;SDS011;2159;50.906;7.152;2023-02-26T02:37:17;5.57;;;2.50;;
4290;SDS011;2159;50.906;7.152;2023-02-26T02:39:48;4.73;;;2.70;;
4290;SDS011;2159;50.906;7.152;2023-02-26T02:42:18;4.07;;;2.67;;
4290;SDS011;2159;50.906;7.152;2023-02-26T02:44:47;3.77;;;2.70;;
4290;SDS011;2159;50.906;7.152;2023-02-26T02:47:17;4.80;;;2.53;;
4290;SDS011;2159;50.906;7.152;2023-02-26T02:49:46;5.33;;;2.93;;
4290;SDS011;2159;50.906;7.152;2023-02-26T02:52:16;4.17;;;2.53;;
4290;SDS011;2159;50.906;7.152;2023-02-26T02:54:46;4.60;;;2.57;;
4290;SDS011;2159;50.906;7.152;2023-02-26T02:57:16;3.37;;;2.43;;
4290;SDS011;2159;50.906;7.152;2023-02-26T02:59:46;4.67;;;2.60;;
4290;SDS011;2159;50.906;7.152;2023-02-26T03:02:18;4.47;;;2.13;;
4290;SDS011;2159;50.906;7.152;2023-02-26T03:04:47;7.03;;;2.00;;
4290;SDS011;2159;50.906;7.152;2023-02-26T03:07:15;3.57;;;2.40;;
4290;SDS011;2159;50.906;7.152;2023-02-26T03:09:42;3.77;;;2.17;;
4290;SDS011;2159;50.906;7.152;2023-02-26T03:12:10;2.37;;;2.17;;
4290;SDS011;2159;50.906;7.152;2023-02-26T03:14:37;3.27;;;2.37;;
4290;SDS011;2159;50.906;7.152;2023-02-26T03:17:08;3.20;;;2.07;;
4290;SDS011;2159;50.906;7.152;2023-02-26T03:19:44;5.90;;;2.20;;
4290;SDS011;2159;50.906;7.152;2023-02-26T03:22:14;4.27;;;2.23;;
4290;SDS011;2159;50.906;7.152;2023-02-26T03:24:44;3.13;;;1.90;;
4290;SDS011;2159;50.906;7.152;2023-02-26T03:27:14;4.57;;;2.00;;
4290;SDS011;2159;50.906;7.152;2023-02-26T03:29:45;2.97;;;2.10;;
4290;SDS011;2159;50.906;7.152;2023-02-26T03:32:14;2.17;;;1.90;;
4290;SDS011;2159;50.906;7.152;2023-02-26T03:34:46;4.77;;;2.10;;
4290;SDS011;2159;50.906;7.152;2023-02-26T03:37:16;2.70;;;2.13;;
4290;SDS011;2159;50.906;7.152;2023-02-26T03:39:47;2.60;;;2.40;;
4290;SDS011;2159;50.906;7.152;2023-02-26T03:42:18;5.83;;;2.40;;
4290;SDS011;2159;50.906;7.152;2023-02-26T03:44:48;3.13;;;1.90;;
4290;SDS011;2159;50.906;7.152;2023-02-26T03:47:18;3.73;;;2.00;;
4290;SDS011;2159;50.906;7.152;2023-02-26T03:49:49;2.53;;;2.40;;
4290;SDS011;2159;50.906;7.152;2023-02-26T03:52:19;2.57;;;2.37;;
4290;SDS011;2159;50.906;7.152;2023-02-26T03:54:49;2.70;;;2.10;;
4290;SDS011;2159;50.906;7.152;2023-02-26T03:57:18;2.40;;;2.30;;
4290;SDS011;2159;50.906;7.152;2023-02-26T03:59:46;2.50;;;2.40;;
4290;SDS011;2159;50.906;7.152;2023-02-26T04:02:14;2.60;;;2.40;;
4290;SDS011;2159;50.906;7.152;2023-02-26T04:04:43;3.63;;;2.60;;
4290;SDS011;2159;50.906;7.152;2023-02-26T04:07:13;2.43;;;2.27;;
4290;SDS011;2159;50.906;7.152;2023-02-26T04:09:42;5.43;;;2.30;;
4290;SDS011;2159;50.906;7.152;2023-02-26T04:12:10;2.80;;;2.60;;
4290;SDS011;2159;50.906;7.152;2023-02-26T04:14:37;3.23;;;2.30;;
4290;SDS011;2159;50.906;7.152;2023-02-26T04:17:05;6.83;;;2.20;;
4290;SDS011;2159;50.906;7.152;2023-02-26T04:19:32;4.87;;;2.13;;
4290;SDS011;2159;50.906;7.152;2023-02-26T04:22:00;2.10;;;2.00;;
4290;SDS011;2159;50.906;7.152;2023-02-26T04:24:29;2.40;;;2.20;;
4290;SDS011;2159;50.906;7.152;2023-02-26T04:26:56;3.53;;;2.30;;
4290;SDS011;2159;50.906;7.152;2023-02-26T04:29:24;1.90;;;1.80;;
4290;SDS011;2159;50.906;7.152;2023-02-26T04:31:51;3.20;;;1.87;;
4290;SDS011;2159;50.906;7.152;2023-02-26T04:34:19;2.73;;;2.30;;
4290;SDS011;2159;50.906;7.152;2023-02-26T04:36:46;2.33;;;2.13;;
4290;SDS011;2159;50.906;7.152;2023-02-26T04:39:14;2.33;;;2.13;;
4290;SDS011;2159;50.906;7.152;2023-02-26T04:41:42;3.60;;;2.00;;
4290;SDS011;2159;50.906;7.152;2023-02-26T04:44:10;1.80;;;1.70;;
4290;SDS011;2159;50.906;7.152;2023-02-26T04:46:37;2.77;;;1.90;;
4290;SDS011;2159;50.906;7.152;2023-02-26T04:49:05;4.43;;;2.10;;
4290;SDS011;2159;50.906;7.152;2023-02-26T04:51:32;1.70;;;1.60;;
4290;SDS011;2159;50.906;7.152;2023-02-26T04:54:00;5.60;;;1.60;;
4290;SDS011;2159;50.906;7.152;2023-02-26T04:56:27;4.87;;;1.93;;
4290;SDS011;2159;50.906;7.152;2023-02-26T04:58:56;2.97;;;1.60;;
4290;SDS011;2159;50.906;7.152;2023-02-26T05:01:24;3.03;;;1.70;;
4290;SDS011;2159;50.906;7.152;2023-02-26T05:03:51;5.40;;;1.70;;
4290;SDS011;2159;50.906;7.152;2023-02-26T05:06:19;2.60;;;2.00;;
4290;SDS011;2159;50.906;7.152;2023-02-26T05:08:46;1.80;;;1.70;;
4290;SDS011;2159;50.906;7.152;2023-02-26T05:11:14;2.23;;;2.03;;
4290;SDS011;2159;50.906;7.152;2023-02-26T05:13:41;3.47;;;1.60;;
4290;SDS011;2159;50.906;7.152;2023-02-26T05:16:10;2.90;;;1.43;;
4290;SDS011;2159;50.906;7.152;2023-02-26T05:18:38;3.30;;;1.80;;
4290;SDS011;2159;50.906;7.152;2023-02-26T05:21:05;2.40;;;1.50;;
4290;SDS011;2159;50.906;7.152;2023-02-26T05:23:33;2.73;;;1.47;;
4290;SDS011;2159;50.906;7.152;2023-02-26T05:26:00;1.83;;;1.73;;
4290;SDS011;2159;50.906;7.152;2023-02-26T05:28:28;2.97;;;1.50;;
4290;SDS011;2159;50.906;7.152;2023-02-26T05:30:55;1.43;;;1.33;;
4290;SDS011;2159;50.906;7.152;2023-02-26T05:33:25;1.70;;;1.60;;
4290;SDS011;2159;50.906;7.152;2023-02-26T05:35:52;2.50;;;1.80;;
4290;SDS011;2159;50.906;7.152;2023-02-26T05:38:20;2.97;;;1.97;;
4290;SDS011;2159;50.906;7.152;2023-02-26T05:40:47;4.10;;;1.90;;
4290;SDS011;2159;50.906;7.152;2023-02-26T05:43:15;2.60;;;1.80;;
4290;SDS011;2159;50.906;7.152;2023-02-26T05:45:42;4.10;;;1.80;;
4290;SDS011;2159;50.906;7.152;2023-02-26T05:48:10;2.87;;;1.87;;
4290;SDS011;2159;50.906;7.152;2023-02-26T05:50:39;1.80;;;1.70;;
4290;SDS011;2159;50.906;7.152;2023-02-26T05:53:07;2.87;;;1.87;;
4290;SDS011;2159;50.906;7.152;2023-02-26T05:55:34;3.87;;;2.23;;
4290;SDS011;2159;50.906;7.152;2023-02-26T05:58:02;3.57;;;2.10;;
4290;SDS011;2159;50.906;7.152;2023-02-26T06:00:29;1.93;;;1.77;;
4290;SDS011;2159;50.906;7.152;2023-02-26T06:02:57;1.73;;;1.63;;
4290;SDS011;2159;50.906;7.152;2023-02-26T06:05:24;5.53;;;2.30;;
4290;SDS011;2159;50.906;7.152;2023-02-26T06:07:53;3.10;;;2.03;;
4290;SDS011;2159;50.906;7.152;2023-02-26T06:10:21;1.97;;;1.87;;
4290;SDS011;2159;50.906;7.152;2023-02-26T06:12:48;2.30;;;2.07;;
4290;SDS011;2159;50.906;7.152;2023-02-26T06:15:16;1.73;;;1.63;;
4290;SDS011;2159;50.906;7.152;2023-02-26T06:17:43;3.90;;;1.87;;
4290;SDS011;2159;50.906;7.152;2023-02-26T06:20:11;2.70;;;1.70;;
4290;SDS011;2159;50.906;7.152;2023-02-26T06:22:38;2.57;;;2.00;;
4290;SDS011;2159;50.906;7.152;2023-02-26T06:25:08;3.33;;;2.23;;
4290;SDS011;2159;50.906;7.152;2023-02-26T06:27:35;2.87;;;2.20;;
4290;SDS011;2159;50.906;7.152;2023-02-26T06:30:03;5.30;;;2.30;;
4290;SDS011;2159;50.906;7.152;2023-02-26T06:32:30;3.47;;;2.23;;
4290;SDS011;2159;50.906;7.152;2023-02-26T06:34:59;2.50;;;2.30;;
4290;SDS011;2159;50.906;7.152;2023-02-26T06:37:26;2.77;;;2.20;;
4290;SDS011;2159;50.906;7.152;2023-02-26T06:39:53;3.07;;;2.10;;
4290;SDS011;2159;50.906;7.152;2023-02-26T06:42:22;9.17;;;2.73;;
4290;SDS011;2159;50.906;7.152;2023-02-26T06:44:50;2.63;;;2.13;;
4290;SDS011;2159;50.906;7.152;2023-02-26T06:47:17;4.30;;;2.63;;
4290;SDS011;2159;50.906;7.152;2023-02-26T06:49:44;2.87;;;2.30;;
4290;SDS011;2159;50.906;7.152;2023-02-26T06:52:12;3.20;;;2.60;;
4290;SDS011;2159;50.906;7.152;2023-02-26T06:54:39;3.57;;;2.70;;
4290;SDS011;2159;50.906;7.152;2023-02-26T06:57:07;3.83;;;2.93;;
4290;SDS011;2159;50.906;7.152;2023-02-26T06:59:36;5.20;;;2.90;;
4290;SDS011;2159;50.906;7.152;2023-02-26T07:02:03;3.53;;;2.70;;
4290;SDS011;2159;50.906;7.152;2023-02-26T07:04:30;3.73;;;2.80;;
4290;SDS011;2159;50.906;7.152;2023-02-26T07:06:58;5.53;;;2.80;;
4290;SDS011;2159;50.906;7.152;2023-02-26T07:09:25;5.23;;;2.90;;
4290;SDS011;2159;50.906;7.152;2023-02-26T07:11:53;4.90;;;2.97;;
4290;SDS011;2159;50.906;7.152;2023-02-26T07:14:20;3.33;;;3.00;;
4290;SDS011;2159;50.906;7.152;2023-02-26T07:16:49;4.27;;;2.67;;
4290;SDS011;2159;50.906;7.152;2023-02-26T07:19:16;5.50;;;2.63;;
4290;SDS011;2159;50.906;7.152;2023-02-26T07:21:44;3.70;;;3.03;;
4290;SDS011;2159;50.906;7.152;2023-02-26T07:24:11;3.70;;;3.30;;
4290;SDS011;2159;50.906;7.152;2023-02-26T07:26:39;7.17;;;3.50;;
4290;SDS011;2159;50.906;7.152;2023-02-26T07:29:06;6.83;;;3.30;;
4290;SDS011;2159;50.906;7.152;2023-02-26T07:31:34;3.43;;;3.13;;
4290;SDS011;2159;50.906;7.152;2023-02-26T07:34:03;4.00;;;3.23;;
4290;SDS011;2159;50.906;7.152;2023-02-26T07:36:31;3.23;;;2.93;;
4290;SDS011;2159;50.906;7.152;2023-02-26T07:38:58;5.17;;;2.90;;
4290;SDS011;2159;50.906;7.152;2023-02-26T07:41:25;3.23;;;2.90;;
4290;SDS011;2159;50.906;7.152;2023-02-26T07:43:53;4.63;;;3.20;;
4290;SDS011;2159;50.906;7.152;2023-02-26T07:46:21;3.30;;;2.97;;
4290;SDS011;2159;50.906;7.152;2023-02-26T07:48:48;4.17;;;2.73;;
4290;SDS011;2159;50.906;7.152;2023-02-26T07:51:17;4.10;;;2.90;;
4290;SDS011;2159;50.906;7.152;2023-02-26T07:53:45;3.23;;;2.73;;
4290;SDS011;2159;50.906;7.152;2023-02-26T07:56:12;2.80;;;2.60;;
4290;SDS011;2159;50.906;7.152;2023-02-26T07:58:39;6.67;;;2.90;;
4290;SDS011;2159;50.906;7.152;2023-02-26T08:01:07;4.10;;;2.97;;
4290;SDS011;2159;50.906;7.152;2023-02-26T08:03:34;8.33;;;2.93;;
4290;SDS011;2159;50.906;7.152;2023-02-26T08:06:02;4.20;;;2.87;;
4290;SDS011;2159;50.906;7.152;2023-02-26T08:08:31;3.90;;;2.83;;
4290;SDS011;2159;50.906;7.152;2023-02-26T08:10:59;6.87;;;3.30;;
4290;SDS011;2159;50.906;7.152;2023-02-26T08:13:26;4.40;;;3.00;;
4290;SDS011;2159;50.906;7.152;2023-02-26T08:15:54;3.10;;;2.80;;
4290;SDS011;2159;50.906;7.152;2023-02-26T08:18:21;3.67;;;2.60;;
4290;SDS011;2159;50.906;7.152;2023-02-26T08:20:49;2.60;;;2.40;;
4290;SDS011;2159;50.906;7.152;2023-02-26T08:23:17;2.50;;;2.40;;
4290;SDS011;2159;50.906;7.152;2023-02-26T08:25:45;3.00;;;2.80;;
4290;SDS011;2159;50.906;7.152;2023-02-26T08:28:14;3.40;;;2.50;;
4290;SDS011;2159;50.906;7.152;2023-02-26T08:30:41;2.83;;;2.63;;
4290;SDS011;2159;50.906;7.152;2023-02-26T08:33:08;2.23;;;2.13;;
4290;SDS011;2159;50.906;7.152;2023-02-26T08:35:37;2.90;;;2.70;;
4290;SDS011;2159;50.906;7.152;2023-02-26T08:38:04;2.40;;;2.20;;
4290;SDS011;2159;50.906;7.152;2023-02-26T08:40:32;3.53;;;2.60;;
4290;SDS011;2159;50.906;7.152;2023-02-26T08:43:01;2.60;;;2.40;;
4290;SDS011;2159;50.906;7.152;2023-02-26T08:45:29;2.77;;;2.20;;
4290;SDS011;2159;50.906;7.152;2023-02-26T08:47:56;3.13;;;2.30;;
4290;SDS011;2159;50.906;7.152;2023-02-26T08:50:24;2.47;;;2.10;;
4290;SDS011;2159;50.906;7.152;2023-02-26T08:52:51;5.30;;;2.20;;
4290;SDS011;2159;50.906;7.152;2023-02-26T08:55:19;3.30;;;2.30;;
4290;SDS011;2159;50.906;7.152;2023-02-26T08:57:46;3.03;;;2.07;;
4290;SDS011;2159;50.906;7.152;2023-02-26T09:00:15;2.50;;;2.30;;
4290;SDS011;2159;50.906;7.152;2023-02-26T09:02:43;2.30;;;2.03;;
4290;SDS011;2159;50.906;7.152;2023-02-26T09:05:11;3.13;;;2.27;;
4290;SDS011;2159;50.906;7.152;2023-02-26T09:07:40;3.50;;;2.17;;
4290;SDS011;2159;50.906;7.152;2023-02-26T09:10:08;2.97;;;1.93;;
4290;SDS011;2159;50.906;7.152;2023-02-26T09:12:36;4.37;;;2.20;;
4290;SDS011;2159;50.906;7.152;2023-02-26T09:15:04;1.87;;;1.73;;
4290;SDS011;2159;50.906;7.152;2023-02-26T09:17:33;2.00;;;1.90;;
4290;SDS011;2159;50.906;7.152;2023-02-26T09:20:00;2.23;;;2.07;;
4290;SDS011;2159;50.906;7.152;2023-02-26T09:22:28;1.90;;;1.80;;
4290;SDS011;2159;50.906;7.152;2023-02-26T09:24:55;1.80;;;1.70;;
4290;SDS011;2159;50.906;7.152;2023-02-26T09:27:23;2.10;;;1.90;;
4290;SDS011;2159;50.906;7.152;2023-02-26T09:29:51;2.90;;;1.70;;
4290;SDS011;2159;50.906;7.152;2023-02-26T09:32:18;3.33;;;1.80;;
4290;SDS011;2159;50.906;7.152;2023-02-26T09:34:47;2.63;;;1.50;;
4290;SDS011;2159;50.906;7.152;2023-02-26T09:37:15;2.50;;;1.67;;
4290;SDS011;2159;50.906;7.152;2023-02-26T09:39:42;1.83;;;1.73;;
4290;SDS011;2159;50.906;7.152;2023-02-26T09:42:21;1.50;;;1.40;;
4290;SDS011;2159;50.906;7.152;2023-02-26T09:44:52;1.90;;;1.50;;
4290;SDS011;2159;50.906;7.152;2023-02-26T09:47:23;3.07;;;1.47;;
4290;SDS011;2159;50.906;7.152;2023-02-26T09:49:55;1.40;;;1.30;;
4290;SDS011;2159;50.906;7.152;2023-02-26T09:52:24;1.93;;;1.13;;
4290;SDS011;2159;50.906;7.152;2023-02-26T09:54:55;1.33;;;1.23;;
4290;SDS011;2159;50.906;7.152;2023-02-26T09:57:26;2.27;;;1.50;;
4290;SDS011;2159;50.906;7.152;2023-02-26T09:59:54;1.40;;;1.30;;
4290;SDS011;2159;50.906;7.152;2023-02-26T10:02:23;1.97;;;1.20;;
4290;SDS011;2159;50.906;7.152;2023-02-26T10:04:59;2.30;;;1.10;;
4290;SDS011;2159;50.906;7.152;2023-02-26T10:07:30;4.10;;;1.33;;
4290;SDS011;2159;50.906;7.152;2023-02-26T10:10:08;1.20;;;1.10;;
4290;SDS011;2159;50.906;7.152;2023-02-26T10:12:38;2.93;;;1.20;;
4290;SDS011;2159;50.906;7.152;2023-02-26T10:15:08;1.30;;;1.20;;
4290;SDS011;2159;50.906;7.152;2023-02-26T10:17:40;1.33;;;1.23;;
4290;SDS011;2159;50.906;7.152;2023-02-26T10:20:12;1.60;;;1.00;;
4290;SDS011;2159;50.906;7.152;2023-02-26T10:22:43;1.70;;;1.00;;
4290;SDS011;2159;50.906;7.152;2023-02-26T10:25:14;1.23;;;1.10;;
4290;SDS011;2159;50.906;7.152;2023-02-26T10:27:46;1.57;;;1.10;;
4290;SDS011;2159;50.906;7.152;2023-02-26T10:30:16;1.00;;;1.00;;
4290;SDS011;2159;50.906;7.152;2023-02-26T10:32:50;1.27;;;1.17;;
4290;SDS011;2159;50.906;7.152;2023-02-26T10:35:20;2.43;;;1.00;;
4290;SDS011;2159;50.906;7.152;2023-02-26T10:37:52;0.97;;;0.97;;
4290;SDS011;2159;50.906;7.152;2023-02-26T10:40:22;1.80;;;1.20;;
4290;SDS011;2159;50.906;7.152;2023-02-26T10:42:51;1.10;;;1.10;;
4290;SDS011;2159;50.906;7.152;2023-02-26T10:45:27;1.40;;;1.20;;
4290;SDS011;2159;50.906;7.152;2023-02-26T10:48:00;1.10;;;1.00;;
4290;SDS011;2159;50.906;7.152;2023-02-26T10:50:32;1.00;;;1.00;;
4290;SDS011;2159;50.906;7.152;2023-02-26T10:52:59;1.30;;;1.20;;
4290;SDS011;2159;50.906;7.152;2023-02-26T10:55:32;1.57;;;1.13;;
4290;SDS011;2159;50.906;7.152;2023-02-26T10:58:03;1.07;;;1.07;;
4290;SDS011;2159;50.906;7.152;2023-02-26T11:00:32;1.90;;;1.10;;
4290;SDS011;2159;50.906;7.152;2023-02-26T11:03:01;1.00;;;1.00;;
4290;SDS011;2159;50.906;7.152;2023-02-26T11:05:30;1.27;;;1.10;;
4290;SDS011;2159;50.906;7.152;2023-02-26T11:08:00;2.77;;;1.13;;
4290;SDS011;2159;50.906;7.152;2023-02-26T11:10:30;1.07;;;1.07;;
4290;SDS011;2159;50.906;7.152;2023-02-26T11:13:02;1.27;;;1.10;;
4290;SDS011;2159;50.906;7.152;2023-02-26T11:15:29;1.73;;;1.20;;
4290;SDS011;2159;50.906;7.152;2023-02-26T11:17:57;1.03;;;0.90;;
4290;SDS011;2159;50.906;7.152;2023-02-26T11:20:29;1.83;;;1.10;;
4290;SDS011;2159;50.906;7.152;2023-02-26T11:22:57;0.93;;;0.80;;
4290;SDS011;2159;50.906;7.152;2023-02-26T11:25:28;4.13;;;1.10;;
4290;SDS011;2159;50.906;7.152;2023-02-26T11:27:58;0.90;;;0.90;;
4290;SDS011;2159;50.906;7.152;2023-02-26T11:30:28;1.00;;;1.00;;
4290;SDS011;2159;50.906;7.152;2023-02-26T11:32:56;1.43;;;1.00;;
4290;SDS011;2159;50.906;7.152;2023-02-26T11:35:24;1.87;;;1.00;;
4290;SDS011;2159;50.906;7.152;2023-02-26T11:37:52;1.37;;;1.03;;
4290;SDS011;2159;50.906;7.152;2023-02-26T11:40:22;1.23;;;1.17;;
4290;SDS011;2159;50.906;7.152;2023-02-26T11:42:53;1.10;;;1.00;;
4290;SDS011;2159;50.906;7.152;2023-02-26T11:45:21;0.90;;;0.90;;
4290;SDS011;2159;50.906;7.152;2023-02-26T11:47:52;1.10;;;1.00;;
4290;SDS011;2159;50.906;7.152;2023-02-26T11:50:22;0.80;;;0.80;;
4290;SDS011;2159;50.906;7.152;2023-02-26T11:52:53;1.00;;;0.90;;
4290;SDS011;2159;50.906;7.152;2023-02-26T11:55:25;1.40;;;1.00;;
4290;SDS011;2159;50.906;7.152;2023-02-26T11:57:55;0.90;;;0.90;;
4290;SDS011;2159;50.906;7.152;2023-02-26T12:00:23;1.20;;;1.10;;
4290;SDS011;2159;50.906;7.152;2023-02-26T12:02:52;1.13;;;1.10;;
4290;SDS011;2159;50.906;7.152;2023-02-26T12:05:22;1.33;;;0.90;;
4290;SDS011;2159;50.906;7.152;2023-02-26T12:07:50;0.90;;;0.90;;
4290;SDS011;2159;50.906;7.152;2023-02-26T12:10:25;0.90;;;0.90;;
4290;SDS011;2159;50.906;7.152;2023-02-26T12:12:57;0.70;;;0.70;;
4290;SDS011;2159;50.906;7.152;2023-02-26T12:15:28;1.07;;;0.90;;
4290;SDS011;2159;50.906;7.152;2023-02-26T12:20:45;1.17;;;1.00;;
4290;SDS011;2159;50.906;7.152;2023-02-26T12:23:18;1.30;;;1.20;;
4290;SDS011;2159;50.906;7.152;2023-02-26T12:25:53;0.90;;;0.90;;
4290;SDS011;2159;50.906;7.152;2023-02-26T12:31:12;0.90;;;0.80;;
4290;SDS011;2159;50.906;7.152;2023-02-26T12:33:44;0.73;;;0.73;;
4290;SDS011;2159;50.906;7.152;2023-02-26T12:36:18;0.83;;;0.80;;
4290;SDS011;2159;50.906;7.152;2023-02-26T12:38:49;0.90;;;0.90;;
4290;SDS011;2159;50.906;7.152;2023-02-26T12:41:39;1.10;;;0.90;;
4290;SDS011;2159;50.906;7.152;2023-02-26T12:44:15;0.90;;;0.90;;
4290;SDS011;2159;50.906;7.152;2023-02-26T12:46:48;2.50;;;1.00;;
4290;SDS011;2159;50.906;7.152;2023-02-26T12:49:24;1.00;;;0.90;;
4290;SDS011;2159;50.906;7.152;2023-02-26T12:52:00;0.90;;;0.90;;
4290;SDS011;2159;50.906;7.152;2023-02-26T12:54:32;0.90;;;0.90;;
4290;SDS011;2159;50.906;7.152;2023-02-26T12:57:18;0.80;;;0.80;;
4290;SDS011;2159;50.906;7.152;2023-02-26T12:59:52;0.80;;;0.80;;
4290;SDS011;2159;50.906;7.152;2023-02-26T13:02:32;2.80;;;0.90;;
4290;SDS011;2159;50.906;7.152;2023-02-26T13:05:06;0.83;;;0.83;;
4290;SDS011;2159;50.906;7.152;2023-02-26T13:07:47;1.43;;;0.93;;
4290;SDS011;2159;50.906;7.152;2023-02-26T13:10:19;2.20;;;1.60;;
4290;SDS011;2159;50.906;7.152;2023-02-26T13:12:50;1.60;;;1.50;;
4290;SDS011;2159;50.906;7.152;2023-02-26T13:15:28;1.33;;;1.20;;
4290;SDS011;2159;50.906;7.152;2023-02-26T13:18:03;1.07;;;1.03;;
4290;SDS011;2159;50.906;7.152;2023-02-26T13:20:34;2.43;;;0.97;;
4290;SDS011;2159;50.906;7.152;2023-02-26T13:23:04;1.00;;;1.00;;
4290;SDS011;2159;50.906;7.152;2023-02-26T13:25:34;0.80;;;0.80;;
4290;SDS011;2159;50.906;7.152;2023-02-26T13:28:03;1.87;;;1.13;;
4290;SDS011;2159;50.906;7.152;2023-02-26T13:30:31;0.90;;;0.90;;
4290;SDS011;2159;50.906;7.152;2023-02-26T13:32:59;2.40;;;1.00;;
4290;SDS011;2159;50.906;7.152;2023-02-26T13:35:30;2.00;;;1.20;;
4290;SDS011;2159;50.906;7.152;2023-02-26T13:37:59;0.80;;;0.80;;
4290;SDS011;2159;50.906;7.152;2023-02-26T13:40:39;1.13;;;0.90;;
4290;SDS011;2159;50.906;7.152;2023-02-26T13:43:14;0.97;;;0.97;;
4290;SDS011;2159;50.906;7.152;2023-02-26T13:45:44;1.00;;;1.00;;
4290;SDS011;2159;50.906;7.152;2023-02-26T13:48:16;0.80;;;0.80;;
4290;SDS011;2159;50.906;7.152;2023-02-26T13:50:50;0.90;;;0.90;;
4290;SDS011;2159;50.906;7.152;2023-02-26T13:56:05;1.80;;;0.90;;
4290;SDS011;2159;50.906;7.152;2023-02-26T13:58:35;0.80;;;0.80;;
4290;SDS011;2159;50.906;7.152;2023-02-26T14:01:05;1.67;;;1.57;;
4290;SDS011;2159;50.906;7.152;2023-02-26T14:03:34;2.07;;;1.93;;
4290;SDS011;2159;50.906;7.152;2023-02-26T14:08:53;1.00;;;1.00;;
4290;SDS011;2159;50.906;7.152;2023-02-26T14:14:15;1.13;;;1.03;;
4290;SDS011;2159;50.906;7.152;2023-02-26T14:16:43;0.80;;;0.80;;
4290;SDS011;2159;50.906;7.152;2023-02-26T14:19:20;1.53;;;1.00;;
4290;SDS011;2159;50.906;7.152;2023-02-26T14:21:48;0.80;;;0.80;;
4290;SDS011;2159;50.906;7.152;2023-02-26T14:24:20;0.83;;;0.83;;
4290;SDS011;2159;50.906;7.152;2023-02-26T14:26:49;1.47;;;1.13;;
4290;SDS011;2159;50.906;7.152;2023-02-26T14:29:20;1.17;;;0.90;;
4290;SDS011;2159;50.906;7.152;2023-02-26T14:31:59;1.03;;;1.03;;
4290;SDS011;2159;50.906;7.152;2023-02-26T14:34:32;1.10;;;1.10;;
4290;SDS011;2159;50.906;7.152;2023-02-26T14:37:02;0.93;;;0.93;;
4290;SDS011;2159;50.906;7.152;2023-02-26T14:39:35;1.90;;;1.60;;
4290;SDS011;2159;50.906;7.152;2023-02-26T14:42:03;0.90;;;0.90;;
4290;SDS011;2159;50.906;7.152;2023-02-26T14:44:33;1.07;;;0.90;;
4290;SDS011;2159;50.906;7.152;2023-02-26T14:47:02;5.17;;;0.90;;
4290;SDS011;2159;50.906;7.152;2023-02-26T14:49:31;1.80;;;1.00;;
4290;SDS011;2159;50.906;7.152;2023-02-26T14:52:03;0.80;;;0.80;;
4290;SDS011;2159;50.906;7.152;2023-02-26T14:54:36;1.67;;;1.00;;
4290;SDS011;2159;50.906;7.152;2023-02-26T14:57:08;2.50;;;2.23;;
4290;SDS011;2159;50.906;7.152;2023-02-26T14:59:43;1.80;;;1.07;;
4290;SDS011;2159;50.906;7.152;2023-02-26T15:02:17;1.40;;;1.20;;
4290;SDS011;2159;50.906;7.152;2023-02-26T15:04:53;1.63;;;1.50;;
4290;SDS011;2159;50.906;7.152;2023-02-26T15:07:37;1.00;;;1.00;;
4290;SDS011;2159;50.906;7.152;2023-02-26T15:10:17;1.20;;;1.20;;
4290;SDS011;2159;50.906;7.152;2023-02-26T15:12:51;1.57;;;1.40;;
4290;SDS011;2159;50.906;7.152;2023-02-26T15:15:28;1.23;;;0.90;;
4290;SDS011;2159;50.906;7.152;2023-02-26T15:18:01;0.87;;;0.87;;
4290;SDS011;2159;50.906;7.152;2023-02-26T15:20:34;1.17;;;1.10;;
4290;SDS011;2159;50.906;7.152;2023-02-26T15:23:11;2.10;;;1.00;;
4290;SDS011;2159;50.906;7.152;2023-02-26T15:25:41;0.80;;;0.80;;
4290;SDS011;2159;50.906;7.152;2023-02-26T15:28:10;0.80;;;0.80;;
4290;SDS011;2159;50.906;7.152;2023-02-26T15:30:38;0.87;;;0.87;;
4290;SDS011;2159;50.906;7.152;2023-02-26T15:33:11;0.80;;;0.80;;
4290;SDS011;2159;50.906;7.152;2023-02-26T15:35:38;1.13;;;1.13;;
4290;SDS011;2159;50.906;7.152;2023-02-26T15:38:07;1.13;;;0.90;;
4290;SDS011;2159;50.906;7.152;2023-02-26T15:40:35;1.00;;;1.00;;
4290;SDS011;2159;50.906;7.152;2023-02-26T15:43:05;1.13;;;1.03;;
4290;SDS011;2159;50.906;7.152;2023-02-26T15:45:33;1.00;;;0.90;;
4290;SDS011;2159;50.906;7.152;2023-02-26T15:48:03;0.73;;;0.73;;
4290;SDS011;2159;50.906;7.152;2023-02-26T15:50:33;3.03;;;0.90;;